createdAt,value
2022-08-05T00:00:27.397Z,100.00
2022-08-05T00:02:58.524Z,100.00
2022-08-05T00:06:05.771Z,100.00
2022-08-05T00:08:33.025Z,100.00
2022-08-05T00:11:20.324Z,100.00
2022-08-05T00:13:53.749Z,100.00
2022-08-05T00:16:36.133Z,100.00
2022-08-05T00:19:14.957Z,100.00
2022-08-05T00:21:44.893Z,100.00
2022-08-05T00:24:19.061Z,100.00
2022-08-05T00:26:57.079Z,100.00
2022-08-05T00:29:37.680Z,100.00
2022-08-05T00:32:15.003Z,100.00
2022-08-05T00:35:05.689Z,100.00
2022-08-05T00:37:53.022Z,100.00
2022-08-05T00:40:26.904Z,100.00
2022-08-05T00:43:07.426Z,100.00
2022-08-05T00:45:43.911Z,100.00
2022-08-05T00:48:15.751Z,100.00
2022-08-05T00:50:48.212Z,100.00
2022-08-05T00:53:45.210Z,100.00
2022-08-05T00:56:10.286Z,100.00
2022-08-05T00:58:44.977Z,100.00
2022-08-05T01:01:16.120Z,100.00
2022-08-05T01:04:13.668Z,100.00
2022-08-05T01:06:48.647Z,100.00
2022-08-05T01:09:20.250Z,100.00
2022-08-05T01:11:53.042Z,100.00
2022-08-05T01:14:29.807Z,100.00
2022-08-05T01:17:07.977Z,100.00
2022-08-05T01:20:00.846Z,100.00
2022-08-05T01:22:48.329Z,100.00
2022-08-05T01:25:56.347Z,100.00
2022-08-05T01:28:39.464Z,100.00
2022-08-05T01:31:15.180Z,100.00
2022-08-05T01:33:51.966Z,100.00
2022-08-05T01:36:29.028Z,100.00
2022-08-05T01:39:01.365Z,100.00
2022-08-05T01:41:35.556Z,100.00
2022-08-05T01:44:11.327Z,100.00
2022-08-05T01:46:46.244Z,100.00
2022-08-05T01:49:24.880Z,100.00
2022-08-05T01:52:01.694Z,100.00
2022-08-05T01:54:52.014Z,100.00
2022-08-05T01:58:11.071Z,100.00
2022-08-05T02:00:30.087Z,100.00
2022-08-05T02:03:03.546Z,100.00
2022-08-05T02:05:36.048Z,100.00
2022-08-05T02:08:07.530Z,100.00
2022-08-05T02:10:43.208Z,100.00
2022-08-05T02:13:18.275Z,100.00
2022-08-05T02:16:06.239Z,100.00
2022-08-05T02:18:42.246Z,100.00
2022-08-05T02:21:16.807Z,100.00
2022-08-05T02:23:49.369Z,100.00
2022-08-05T02:26:26.507Z,100.00
2022-08-05T02:28:59.046Z,100.00
2022-08-05T02:31:35.982Z,100.00
2022-08-05T02:34:11.925Z,100.00
2022-08-05T02:36:46.782Z,100.00
2022-08-05T02:39:22.320Z,100.00
2022-08-05T02:42:00.940Z,100.00
2022-08-05T02:44:33.207Z,100.00
2022-08-05T02:47:08.725Z,100.00
2022-08-05T02:49:44.657Z,100.00
2022-08-05T02:52:29.463Z,100.00
2022-08-05T02:55:05.553Z,100.00
2022-08-05T02:58:10.787Z,100.00
2022-08-05T03:00:32.043Z,100.00
2022-08-05T03:03:10.332Z,100.00
2022-08-05T03:06:54.854Z,100.00
2022-08-05T03:08:33.783Z,100.00
2022-08-05T03:11:54.512Z,100.00
2022-08-05T03:14:03.144Z,100.00
2022-08-05T03:16:34.146Z,100.00
2022-08-05T03:19:16.948Z,100.00
2022-08-05T03:21:50.293Z,100.00
2022-08-05T03:24:29.598Z,100.00
2022-08-05T03:27:01.137Z,100.00
2022-08-05T03:29:45.734Z,100.00
2022-08-05T03:32:22.337Z,100.00
2022-08-05T03:35:04.457Z,100.00
2022-08-05T03:37:46.450Z,100.00
2022-08-05T03:40:24.391Z,100.00
2022-08-05T03:43:58.617Z,100.00
2022-08-05T03:45:57.712Z,100.00
2022-08-05T03:48:29.263Z,100.00
2022-08-05T03:52:38.611Z,100.00
2022-08-05T03:55:50.311Z,100.00
2022-08-05T03:56:58.823Z,100.00
2022-08-05T03:59:46.831Z,100.00
2022-08-05T04:02:38.439Z,100.00
2022-08-05T04:05:13.054Z,100.00
2022-08-05T04:07:58.147Z,100.00
2022-08-05T04:10:37.159Z,100.00
2022-08-05T04:13:08.350Z,100.00
2022-08-05T04:15:38.512Z,100.00
2022-08-05T04:18:26.182Z,100.00
2022-08-05T04:20:57.720Z,100.00
2022-08-05T04:24:05.344Z,100.00
2022-08-05T04:26:22.225Z,100.00
2022-08-05T04:28:52.270Z,100.00
2022-08-05T04:31:22.371Z,100.00
2022-08-05T04:34:31.493Z,100.00
2022-08-05T04:36:50.130Z,100.00
2022-08-05T04:39:23.669Z,100.00
2022-08-05T04:41:53.980Z,100.00
2022-08-05T04:44:30.104Z,100.00
2022-08-05T04:47:08.899Z,100.00
2022-08-05T04:50:01.727Z,100.00
2022-08-05T04:52:29.230Z,100.00
2022-08-05T04:55:14.665Z,100.00
2022-08-05T04:57:51.542Z,100.00
2022-08-05T05:00:24.133Z,100.00
2022-08-05T05:02:54.291Z,100.00
2022-08-05T05:05:28.618Z,100.00
2022-08-05T05:08:02.749Z,100.00
2022-08-05T05:10:42.156Z,100.00
2022-08-05T05:13:25.649Z,100.00
2022-08-05T05:16:06.104Z,100.00
2022-08-05T05:18:37.210Z,100.00
2022-08-05T05:21:07.385Z,100.00
2022-08-05T05:23:39.000Z,100.00
2022-08-05T05:26:32.966Z,100.00
2022-08-05T05:29:14.798Z,100.00
2022-08-05T05:31:46.258Z,100.00
2022-08-05T05:34:20.002Z,100.00
2022-08-05T05:36:54.138Z,100.00
2022-08-05T05:39:24.147Z,100.00
2022-08-05T05:41:56.902Z,100.00
2022-08-05T05:44:36.669Z,100.00
2022-08-05T05:47:21.701Z,100.00
2022-08-05T05:49:56.590Z,100.00
2022-08-05T05:52:34.573Z,100.00
2022-08-05T05:55:13.139Z,100.00
2022-08-05T05:57:52.563Z,100.00
2022-08-05T06:00:27.614Z,100.00
2022-08-05T06:03:03.489Z,100.00
2022-08-05T06:05:54.246Z,100.00
2022-08-05T06:08:32.263Z,100.00
2022-08-05T06:11:02.762Z,100.00
2022-08-05T06:13:40.511Z,100.00
2022-08-05T06:16:30.437Z,100.00
2022-08-05T06:19:05.983Z,100.00
2022-08-05T06:21:38.826Z,100.00
2022-08-05T06:24:14.752Z,100.00
2022-08-05T06:26:52.143Z,100.00
2022-08-05T06:29:49.578Z,100.00
2022-08-05T06:32:25.254Z,100.00
2022-08-05T06:34:57.469Z,100.00
2022-08-05T06:37:55.536Z,100.00
2022-08-05T06:40:21.366Z,100.00
2022-08-05T06:42:57.574Z,100.00
2022-08-05T06:46:02.972Z,100.00
2022-08-05T06:48:54.796Z,100.00
2022-08-05T06:51:12.040Z,100.00
2022-08-05T06:53:59.396Z,100.00
2022-08-05T06:56:29.721Z,100.00
2022-08-05T06:58:59.896Z,100.00
2022-08-05T07:01:33.106Z,100.00
2022-08-05T07:04:04.238Z,100.00
2022-08-05T07:06:34.608Z,100.00
2022-08-05T07:09:04.789Z,100.00
2022-08-05T07:11:37.053Z,100.00
2022-08-05T07:14:29.000Z,100.00
2022-08-05T07:18:02.209Z,100.00
2022-08-05T07:20:31.454Z,100.00
2022-08-05T07:22:45.738Z,100.00
2022-08-05T07:25:22.561Z,100.00
2022-08-05T07:27:58.047Z,100.00
2022-08-05T07:30:34.738Z,100.00
2022-08-05T07:33:16.403Z,100.00
2022-08-05T07:36:02.654Z,100.00
2022-08-05T07:38:42.870Z,100.00
2022-08-05T07:42:14.194Z,100.00
2022-08-05T07:44:14.513Z,100.00
2022-08-05T07:46:50.659Z,100.00
2022-08-05T07:49:23.918Z,100.00
2022-08-05T07:51:55.166Z,100.00
2022-08-05T07:54:31.267Z,100.00
2022-08-05T07:57:17.695Z,100.00
2022-08-05T07:59:53.821Z,100.00
2022-08-05T08:02:31.342Z,100.00
2022-08-05T08:05:21.446Z,100.00
2022-08-05T08:07:59.784Z,100.00
2022-08-05T08:10:30.477Z,100.00
2022-08-05T08:13:00.687Z,100.00
2022-08-05T08:16:33.865Z,100.00
2022-08-05T08:18:21.795Z,100.00
2022-08-05T08:21:01.866Z,100.00
2022-08-05T08:24:01.106Z,100.00
2022-08-05T08:26:27.007Z,100.00
2022-08-05T08:29:21.814Z,100.00
2022-08-05T08:31:51.316Z,100.00
2022-08-05T08:34:30.589Z,100.00
2022-08-05T08:37:06.064Z,100.00
2022-08-05T08:39:37.703Z,100.00
2022-08-05T08:42:32.618Z,100.00
2022-08-05T08:45:22.490Z,100.00
2022-08-05T08:48:12.896Z,100.00
2022-08-05T08:51:03.094Z,100.00
2022-08-05T08:53:45.257Z,100.00
2022-08-05T08:56:15.719Z,100.00
2022-08-05T08:58:47.907Z,100.00
2022-08-05T09:01:19.666Z,100.00
2022-08-05T09:03:57.566Z,100.00
2022-08-05T09:06:30.527Z,100.00
2022-08-05T09:09:04.569Z,100.00
2022-08-05T09:11:51.548Z,100.00
2022-08-05T09:14:56.899Z,100.00
2022-08-05T09:17:40.008Z,100.00
2022-08-05T09:20:08.549Z,100.00
2022-08-05T09:23:18.544Z,100.00
2022-08-05T09:26:03.325Z,100.00
2022-08-05T09:28:37.853Z,100.00
2022-08-05T09:31:43.197Z,100.00
2022-08-05T09:34:01.782Z,100.00
2022-08-05T09:36:45.911Z,100.00
2022-08-05T09:39:45.282Z,100.00
2022-08-05T09:42:23.992Z,100.00
2022-08-05T09:45:17.754Z,100.00
2022-08-05T09:47:56.445Z,100.00
2022-08-05T09:50:44.503Z,100.00
2022-08-05T09:53:26.192Z,100.00
2022-08-05T09:56:13.099Z,100.00
2022-08-05T09:58:59.147Z,100.00
2022-08-05T10:01:32.358Z,100.00
2022-08-05T10:04:10.638Z,100.00
2022-08-05T10:06:54.628Z,100.00
2022-08-05T10:09:30.212Z,100.00
2022-08-05T10:12:31.651Z,100.00
2022-08-05T10:15:26.000Z,100.00
2022-08-05T10:18:16.656Z,100.00
2022-08-05T10:20:50.654Z,100.00
2022-08-05T10:23:56.090Z,100.00
2022-08-05T10:26:14.383Z,100.00
2022-08-05T10:28:46.781Z,100.00
2022-08-05T10:32:51.962Z,100.00
2022-08-05T10:34:12.194Z,100.00
2022-08-05T10:36:44.985Z,100.00
2022-08-05T10:39:24.191Z,100.00
2022-08-05T10:42:01.976Z,100.00
2022-08-05T10:44:34.290Z,100.00
2022-08-05T10:47:26.154Z,100.00
2022-08-05T10:50:32.199Z,100.00
2022-08-05T10:52:58.455Z,100.00
2022-08-05T10:55:38.703Z,100.00
2022-08-05T10:58:21.203Z,100.00
2022-08-05T11:00:55.114Z,100.00
2022-08-05T11:03:33.749Z,100.00
2022-08-05T11:06:17.829Z,100.00
2022-08-05T11:09:17.022Z,100.00
2022-08-05T11:11:53.442Z,100.00
2022-08-05T11:14:57.736Z,100.00
2022-08-05T11:18:09.668Z,100.00
2022-08-05T11:20:46.361Z,100.00
2022-08-05T11:24:04.418Z,100.00
2022-08-05T11:26:33.019Z,100.00
2022-08-05T11:29:13.255Z,100.00
2022-08-05T11:31:58.504Z,100.00
2022-08-05T11:34:51.372Z,100.00
2022-08-05T11:38:28.001Z,100.00
2022-08-05T11:41:34.397Z,100.00
2022-08-05T11:44:04.314Z,100.00
2022-08-05T11:46:58.287Z,100.00
2022-08-05T11:49:28.938Z,100.00
2022-08-05T11:52:11.129Z,100.00
2022-08-05T11:54:48.555Z,100.00
2022-08-05T11:58:08.314Z,100.00
2022-08-05T12:00:30.631Z,100.00
2022-08-05T12:03:00.754Z,100.00
2022-08-05T12:05:39.918Z,100.00
2022-08-05T12:08:18.191Z,100.00
2022-08-05T12:10:52.644Z,100.00
2022-08-05T12:13:48.048Z,100.00
2022-08-05T12:16:14.742Z,100.00
2022-08-05T12:18:52.170Z,100.00
2022-08-05T12:21:26.911Z,100.00
2022-08-05T12:24:07.302Z,100.00
2022-08-05T12:26:44.127Z,100.00
2022-08-05T12:29:17.914Z,100.00
2022-08-05T12:31:55.244Z,100.00
2022-08-05T12:34:28.689Z,100.00
2022-08-05T12:37:01.569Z,100.00
2022-08-05T12:39:38.582Z,100.00
2022-08-05T12:42:16.218Z,100.00
2022-08-05T12:44:47.970Z,100.00
2022-08-05T12:47:31.053Z,100.00
2022-08-05T12:50:03.253Z,100.00
2022-08-05T12:52:39.625Z,100.00
2022-08-05T12:55:26.479Z,100.00
2022-08-05T12:58:50.571Z,100.00
2022-08-05T13:02:03.100Z,100.00
2022-08-05T13:03:43.272Z,100.00
2022-08-05T13:06:19.722Z,100.00
2022-08-05T13:08:52.657Z,100.00
2022-08-05T13:11:46.955Z,100.00
2022-08-05T13:14:20.289Z,100.00
2022-08-05T13:16:58.068Z,100.00
2022-08-05T13:19:50.922Z,100.00
2022-08-05T13:22:28.530Z,100.00
2022-08-05T13:25:05.887Z,100.00
2022-08-05T13:27:39.334Z,100.00
2022-08-05T13:30:36.095Z,100.00
2022-08-05T13:33:04.109Z,100.00
2022-08-05T13:35:47.228Z,100.00
2022-08-05T13:38:30.540Z,100.00
2022-08-05T13:41:01.885Z,100.00
2022-08-05T13:43:45.410Z,100.00
2022-08-05T13:46:44.248Z,100.00
2022-08-05T13:49:17.835Z,100.00
2022-08-05T13:51:47.761Z,100.00
2022-08-05T13:54:21.047Z,100.00
2022-08-05T13:56:55.379Z,100.00
2022-08-05T13:59:27.487Z,100.00
2022-08-05T14:02:04.227Z,100.00
2022-08-05T14:04:50.057Z,100.00
2022-08-05T14:07:55.623Z,100.00
2022-08-05T14:10:18.414Z,100.00
2022-08-05T14:12:49.239Z,100.00
2022-08-05T14:16:06.972Z,100.00
2022-08-05T14:18:23.499Z,100.00
2022-08-05T14:20:54.945Z,100.00
2022-08-05T14:23:28.109Z,100.00
2022-08-05T14:26:06.736Z,100.00
2022-08-05T14:28:36.688Z,100.00
2022-08-05T14:31:54.550Z,100.00
2022-08-05T14:34:15.303Z,100.00
2022-08-05T14:36:45.297Z,100.00
2022-08-05T14:39:23.119Z,100.00
2022-08-05T14:42:19.592Z,100.00
2022-08-05T14:44:45.370Z,100.00
2022-08-05T14:47:15.307Z,100.00
2022-08-05T14:49:58.514Z,100.00
2022-08-05T14:52:51.891Z,100.00
2022-08-05T14:55:20.500Z,100.00
2022-08-05T14:57:54.210Z,100.00
2022-08-05T15:00:29.375Z,100.00
2022-08-05T15:02:59.806Z,100.00
2022-08-05T15:06:07.891Z,100.00
2022-08-05T15:08:58.381Z,100.00
2022-08-05T15:11:12.573Z,80.45
2022-08-05T15:13:45.079Z,26.69
2022-08-05T15:16:16.662Z,26.93
2022-08-05T15:18:47.400Z,100.00
2022-08-05T15:21:20.957Z,100.00
2022-08-05T15:23:51.182Z,100.00
2022-08-05T15:26:32.093Z,100.00
2022-08-05T15:29:02.701Z,100.00
2022-08-05T15:31:34.754Z,100.00
2022-08-05T15:34:31.666Z,100.00
2022-08-05T15:36:57.689Z,100.00
2022-08-05T15:40:59.324Z,100.00
2022-08-05T15:42:49.773Z,100.00
2022-08-05T15:45:14.785Z,100.00
2022-08-05T15:47:46.056Z,100.00
2022-08-05T15:50:17.076Z,100.00
2022-08-05T15:52:53.346Z,100.00
2022-08-05T15:56:03.936Z,100.00
2022-08-05T15:58:16.690Z,100.00
2022-08-05T16:01:03.417Z,100.00
2022-08-05T16:03:34.470Z,100.00
2022-08-05T16:06:12.011Z,100.00
2022-08-05T16:08:44.606Z,100.00
2022-08-05T16:11:15.282Z,100.00
2022-08-05T16:13:45.696Z,100.00
2022-08-05T16:16:21.203Z,100.00
2022-08-05T16:18:55.353Z,100.00
2022-08-05T16:22:00.297Z,100.00
2022-08-05T16:24:39.930Z,100.00
2022-08-05T16:27:09.759Z,100.00
2022-08-05T16:29:51.007Z,100.00
2022-08-05T16:32:28.584Z,100.00
2022-08-05T16:35:00.067Z,100.00
2022-08-05T16:38:02.533Z,100.00
2022-08-05T16:40:28.828Z,100.00
2022-08-05T16:42:59.962Z,100.00
2022-08-05T16:46:06.812Z,100.00
2022-08-05T16:48:25.438Z,100.00
2022-08-05T16:50:56.286Z,100.00
2022-08-05T16:53:32.215Z,100.00
2022-08-05T16:56:18.804Z,100.00
2022-08-05T16:58:49.677Z,100.00
2022-08-05T17:01:19.870Z,100.00
2022-08-05T17:03:50.850Z,100.00
2022-08-05T17:06:20.858Z,100.00
2022-08-05T17:08:54.842Z,100.00
2022-08-05T17:11:27.870Z,100.00
2022-08-05T17:14:05.227Z,100.00
2022-08-05T17:16:37.355Z,28.70
2022-08-05T17:19:09.612Z,26.93
2022-08-05T17:21:42.079Z,37.74
2022-08-05T17:24:34.918Z,37.74
2022-08-05T17:27:11.601Z,37.57
2022-08-05T17:29:41.810Z,37.84
2022-08-05T17:32:17.109Z,100.00
2022-08-05T17:34:49.233Z,100.00
2022-08-05T17:37:40.970Z,100.00
2022-08-05T17:40:13.318Z,100.00
2022-08-05T17:42:51.161Z,100.00
2022-08-05T17:45:29.612Z,100.00
2022-08-05T17:48:09.297Z,100.00
2022-08-05T17:50:41.070Z,100.00
2022-08-05T17:53:11.761Z,100.00
2022-08-05T17:55:41.747Z,100.00
2022-08-05T17:58:16.082Z,100.00
2022-08-05T18:00:50.559Z,100.00
2022-08-05T18:06:15.167Z,100.00
2022-08-05T18:08:52.334Z,100.00
2022-08-05T18:11:33.174Z,100.00
2022-08-05T18:14:13.182Z,100.00
2022-08-05T18:16:51.386Z,100.00
2022-08-05T18:19:25.998Z,100.00
2022-08-05T18:22:08.709Z,100.00
2022-08-05T18:24:41.411Z,100.00
2022-08-05T18:27:12.558Z,100.00
2022-08-05T18:29:54.549Z,100.00
2022-08-05T18:32:28.361Z,100.00
2022-08-05T18:34:59.597Z,100.00
2022-08-05T18:37:34.668Z,100.00
2022-08-05T18:40:34.479Z,100.00
2022-08-05T18:43:01.557Z,100.00
2022-08-05T18:45:41.888Z,100.00
2022-08-05T18:48:30.127Z,100.00
2022-08-05T18:52:06.400Z,100.00
2022-08-05T18:54:05.620Z,100.00
2022-08-05T18:56:35.686Z,100.00
2022-08-05T18:59:43.619Z,100.00
2022-08-05T19:02:00.569Z,100.00
2022-08-05T19:04:33.528Z,100.00
2022-08-05T19:07:03.494Z,100.00
2022-08-05T19:09:40.030Z,100.00
2022-08-05T19:12:13.306Z,100.00
2022-08-05T19:14:59.904Z,100.00
2022-08-05T19:18:08.449Z,100.00
2022-08-05T19:20:26.728Z,100.00
2022-08-05T19:22:58.030Z,100.00
2022-08-05T19:25:30.140Z,100.00
2022-08-05T19:28:01.831Z,100.00
2022-08-05T19:30:34.206Z,100.00
2022-08-05T19:33:11.251Z,100.00
2022-08-05T19:35:55.891Z,100.00
2022-08-05T19:38:26.872Z,100.00
2022-08-05T19:40:56.789Z,100.00
2022-08-05T19:44:05.750Z,100.00
2022-08-05T19:46:29.406Z,100.00
2022-08-05T19:49:04.102Z,100.00
2022-08-05T19:52:05.097Z,100.00
2022-08-05T19:54:29.508Z,100.00
2022-08-05T19:57:09.668Z,100.00
2022-08-05T19:59:55.837Z,100.00
2022-08-05T20:02:41.424Z,100.00
2022-08-05T20:05:16.721Z,100.00
2022-08-05T20:07:58.827Z,100.00
2022-08-05T20:10:29.346Z,100.00
2022-08-05T20:12:59.287Z,100.00
2022-08-05T20:15:51.646Z,100.00
2022-08-05T20:18:33.829Z,100.00
2022-08-05T20:21:09.610Z,100.00
2022-08-05T20:23:51.067Z,100.00
2022-08-05T20:26:24.838Z,100.00
2022-08-05T20:28:58.067Z,100.00
2022-08-05T20:31:42.233Z,100.00
2022-08-05T20:34:21.743Z,100.00
2022-08-05T20:36:55.742Z,100.00
2022-08-05T20:39:25.924Z,100.00
2022-08-05T20:42:11.744Z,100.00
2022-08-05T20:44:42.482Z,100.00
2022-08-05T20:47:14.417Z,100.00
2022-08-05T20:49:44.986Z,100.00
2022-08-05T20:52:24.029Z,100.00
2022-08-05T20:54:59.223Z,100.00
2022-08-05T20:57:44.991Z,100.00
2022-08-05T21:00:40.172Z,100.00
2022-08-05T21:03:09.147Z,100.00
2022-08-05T21:05:53.770Z,100.00
2022-08-05T21:08:36.014Z,100.00
2022-08-05T21:11:12.705Z,100.00
2022-08-05T21:13:56.048Z,100.00
2022-08-05T21:16:30.169Z,100.00
2022-08-05T21:19:01.546Z,100.00
2022-08-05T21:21:39.106Z,100.00
2022-08-05T21:24:19.608Z,100.00
2022-08-05T21:26:57.992Z,100.00
2022-08-05T21:29:31.767Z,100.00
2022-08-05T21:32:03.381Z,100.00
2022-08-05T21:34:35.680Z,100.00
2022-08-05T21:37:05.844Z,100.00
2022-08-05T21:39:40.740Z,100.00
2022-08-05T21:42:31.140Z,100.00
2022-08-05T21:45:01.056Z,100.00
2022-08-05T21:47:54.863Z,100.00
2022-08-05T21:50:22.269Z,100.00
2022-08-05T21:52:52.374Z,100.00
2022-08-05T21:56:04.468Z,100.00
2022-08-05T21:58:15.246Z,100.00
2022-08-05T22:00:51.239Z,100.00
2022-08-05T22:03:48.285Z,100.00
2022-08-05T22:06:11.424Z,100.00
2022-08-05T22:08:42.624Z,100.00
2022-08-05T22:11:16.113Z,100.00
2022-08-05T22:14:06.091Z,100.00
2022-08-05T22:16:51.209Z,100.00
2022-08-05T22:20:01.593Z,100.00
2022-08-05T22:22:12.779Z,100.00
2022-08-05T22:24:57.055Z,100.00
2022-08-05T22:28:09.868Z,100.00
2022-08-05T22:30:36.006Z,100.00
2022-08-05T22:33:15.902Z,100.00
2022-08-05T22:35:48.499Z,100.00
2022-08-05T22:38:19.877Z,100.00
2022-08-05T22:40:55.100Z,100.00
2022-08-05T22:43:37.124Z,100.00
2022-08-05T22:46:12.232Z,100.00
2022-08-05T22:48:44.708Z,100.00
2022-08-05T22:51:16.127Z,100.00
2022-08-05T22:53:55.066Z,100.00
2022-08-05T22:56:30.337Z,100.00
2022-08-05T22:59:46.423Z,100.00
2022-08-05T23:02:06.259Z,100.00
2022-08-05T23:04:38.303Z,100.00
2022-08-05T23:07:08.307Z,100.00
2022-08-05T23:09:53.464Z,100.00
2022-08-05T23:12:32.835Z,100.00
2022-08-05T23:15:08.944Z,100.00
2022-08-05T23:18:01.024Z,100.00
2022-08-05T23:20:29.782Z,100.00
2022-08-05T23:23:00.061Z,100.00
2022-08-05T23:25:52.817Z,100.00
2022-08-05T23:28:20.490Z,100.00
2022-08-05T23:30:54.686Z,100.00
2022-08-05T23:34:04.700Z,100.00
2022-08-05T23:36:15.982Z,100.00
2022-08-05T23:38:46.325Z,100.00
2022-08-05T23:41:16.266Z,100.00
2022-08-05T23:44:04.592Z,100.00
2022-08-05T23:46:39.268Z,100.00
2022-08-05T23:49:16.252Z,100.00
2022-08-05T23:52:00.041Z,100.00
2022-08-05T23:54:34.056Z,100.00
2022-08-05T23:57:07.485Z,100.00
